Time,TemperatureF,DewpointF,PressureIn,WindDirection,WindDirectionDegrees,WindSpeedMPH,WindSpeedGustMPH,Humidity,HourlyPrecipIn,Conditions,Clouds,dailyrainin,SoftwareType,DateUTC
2013-05-13 00:00:00,46.0,44.0,-100.00,North,-999,-999.0,-999.0,90,-99.99,,,0.00,,2013-05-13 07:00:00,
2013-05-13 00:52:00,46.0,44.0,-100.00,North,-999,-999.0,-999.0,90,-99.99,,,0.00,,2013-05-13 07:52:00,
2013-05-13 01:00:00,45.0,42.0,-100.00,WSW,237,3.0,6.0,89,-99.99,,,0.00,,2013-05-13 08:00:00,
2013-05-13 02:00:00,45.0,43.0,-100.00,SSW,199,4.0,7.0,90,-99.99,,,0.00,,2013-05-13 09:00:00,
2013-05-13 03:00:00,45.0,42.0,-100.00,SW,215,4.0,7.0,88,-99.99,,,0.00,,2013-05-13 10:00:00,
2013-05-13 04:00:00,45.0,42.0,-100.00,South,181,4.0,8.0,88,-99.99,,,0.00,,2013-05-13 11:00:00,
2013-05-13 05:00:00,44.0,40.0,-100.00,WSW,257,4.0,7.0,87,-99.99,,,0.00,,2013-05-13 12:00:00,
2013-05-13 06:00:00,44.0,40.0,-100.00,West,281,4.0,6.0,84,-99.99,,,0.00,,2013-05-13 13:00:00,
2013-05-13 06:52:00,44.0,40.0,-100.00,West,281,4.0,6.0,84,-99.99,,,0.00,,2013-05-13 13:52:00,
2013-05-13 08:00:00,46.0,38.0,-100.00,South,182,3.0,6.0,73,-99.99,,,0.00,,2013-05-13 15:00:00,
2013-05-13 09:00:00,47.0,37.0,-100.00,WNW,291,4.0,9.0,70,-99.99,,,0.00,,2013-05-13 16:00:00,
2013-05-13 10:00:00,44.0,36.0,-100.00,SSW,207,4.0,6.0,72,-99.99,,,0.00,,2013-05-13 17:00:00,
2013-05-13 11:00:00,46.0,38.0,-100.00,South,178,4.0,8.0,73,-99.99,,,0.00,,2013-05-13 18:00:00,
2013-05-13 12:00:00,45.0,36.0,-100.00,South,186,4.0,7.0,72,-99.99,,,0.00,,2013-05-13 19:00:00,
2013-05-13 13:00:00,47.0,38.0,-100.00,SSE,148,4.0,8.0,72,-99.99,,,0.00,,2013-05-13 20:00:00,
2013-05-13 14:00:00,46.0,36.0,-100.00,South,183,4.0,9.0,67,-99.99,,,0.00,,2013-05-13 21:00:00,
2013-05-13 15:00:00,49.0,36.0,-100.00,South,184,6.0,12.0,61,-99.99,,,0.00,,2013-05-13 22:00:00,
2013-05-13 16:00:00,42.0,32.0,-100.00,SSW,207,5.0,10.0,68,-99.99,,,0.00,,2013-05-13 23:00:00,
2013-05-13 17:00:00,41.0,40.0,-100.00,North,351,5.0,8.0,94,-99.99,,,0.00,,2013-05-14 00:00:00,
2013-05-13 18:00:00,39.0,37.0,-100.00,SSW,205,7.0,13.0,92,-99.99,,,0.00,,2013-05-14 01:00:00,
2013-05-13 19:00:00,37.0,34.0,-100.00,West,260,7.0,12.0,91,-99.99,,,0.00,,2013-05-14 02:00:00,
2013-05-13 20:00:00,35.0,32.0,-100.00,WNW,286,7.0,16.0,87,-99.99,,,0.00,,2013-05-14 03:00:00,
2013-05-13 21:00:00,34.0,27.0,-100.00,West,276,8.0,13.0,76,-99.99,,,0.00,,2013-05-14 04:00:00,
2013-05-13 22:00:00,32.0,28.0,-100.00,SSW,200,7.0,11.0,84,-99.99,,,0.00,,2013-05-14 05:00:00,
2013-05-13 22:42:00,32.0,28.0,-100.00,SSW,200,7.0,11.0,84,-99.99,,,0.00,,2013-05-14 05:42:00,
2013-05-13 22:52:00,32.0,28.0,-100.00,SSW,200,7.0,11.0,84,-99.99,,,0.00,,2013-05-14 05:52:00,
2013-05-13 23:00:00,32.0,29.0,-100.00,South,172,5.0,9.0,87,-99.99,,,-99.99,,2013-05-14 06:00:00,
2013-05-13 23:42:00,33.0,29.0,-100.00,South,172,5.0,9.0,87,-99.99,,,-99.99,,2013-05-14 06:42:00,
2013-05-13 23:52:00,32.0,29.0,-100.00,South,172,5.0,9.0,87,-99.99,,,-99.99,,2013-05-14 06:52:00,